Pagina principale
METAR-TAF:

METAR-TAF

Aeroporti :

Binghamton, New York, Stati Uniti

latitudine: 42-12-28N, longitudine: 075-58-53W, altezza: 496 m

Osservazione

Il bollettino è stato emesso 1 ora e 4 minuti fa, alle 06:53 UTC
Vento 6 kt da nord-ovest
Temperature 13°C
Umidità 72%
Pressione 1020 hPa
Visibilità: 16.1 km
Cielo sereno

METAR: KBGM 240653Z AUTO 32006KT 10SM CLR 13/08 A3013 RMK AO2 SLP195 T01330083

Ora: 03:57 (07:57 UTC)

Previsione

Il bollettino è stato emesso 2 ore e 28 minuti fa, alle 05:29 UTC
Previsione valida dal 24 alle 06 UTC al 25 alle 06 UTC
Vento 8 kt da nord-ovest
Visibilità: 10 km
Cielo sereno
A partire da 25 alle 0200 UTC
Vento 4 kt da ovest/sud-ovest
Visibilità: 10 km
Cielo sereno

TAF: KBGM 240529Z 2406/2506 31008KT P6SM SKC FM250200 24004KT P6SM SKC

Osservazioni e previsioni meteorologiche di più di 4000 aeroporti (messaggi METAR e TAF).

Le stazioni disponibili sono rappresentate dai dischi gialli e rossi sulla carta.

Puntare il mouse per vedere il nome della stazione.

Clicca sopra per visualizzare le osservazioni e previsioni meteorologiche.

Per cambiare la mappa : fare clic sui pulsanti verdi con una croce nera per ingrandire, il pulsante verde con un trattino per diminuire, o sulla freccia verde per le mappe adiacenti.


METAR-TAF: